sensor_id;sensor_type;location;lat;lon;timestamp;P1;durP1;ratioP1;P2;durP2;ratioP2
16967;SDS011;64862;54.398;10.126;2023-04-24T00:02:44;9.63;;;5.47;;
16967;SDS011;64862;54.398;10.126;2023-04-24T00:12:49;8.60;;;5.13;;
16967;SDS011;64862;54.398;10.126;2023-04-24T00:22:52;6.95;;;5.05;;
16967;SDS011;64862;54.398;10.126;2023-04-24T00:32:55;7.30;;;5.22;;
16967;SDS011;64862;54.398;10.126;2023-04-24T00:42:58;7.38;;;5.50;;
16967;SDS011;64862;54.398;10.126;2023-04-24T00:53:02;7.57;;;5.45;;
16967;SDS011;64862;54.398;10.126;2023-04-24T01:03:04;8.02;;;5.35;;
16967;SDS011;64862;54.398;10.126;2023-04-24T01:13:09;8.35;;;6.00;;
16967;SDS011;64862;54.398;10.126;2023-04-24T01:23:12;11.18;;;7.03;;
16967;SDS011;64862;54.398;10.126;2023-04-24T01:33:15;9.70;;;7.10;;
16967;SDS011;64862;54.398;10.126;2023-04-24T01:43:19;10.73;;;6.93;;
16967;SDS011;64862;54.398;10.126;2023-04-24T01:53:21;8.57;;;6.47;;
16967;SDS011;64862;54.398;10.126;2023-04-24T02:03:26;8.63;;;6.90;;
16967;SDS011;64862;54.398;10.126;2023-04-24T02:13:31;9.83;;;6.80;;
16967;SDS011;64862;54.398;10.126;2023-04-24T02:23:37;8.63;;;6.43;;
16967;SDS011;64862;54.398;10.126;2023-04-24T02:33:39;8.80;;;6.82;;
16967;SDS011;64862;54.398;10.126;2023-04-24T02:43:43;10.07;;;6.75;;
16967;SDS011;64862;54.398;10.126;2023-04-24T02:53:45;10.73;;;7.45;;
16967;SDS011;64862;54.398;10.126;2023-04-24T03:03:49;11.07;;;7.70;;
16967;SDS011;64862;54.398;10.126;2023-04-24T03:13:51;9.63;;;7.50;;
16967;SDS011;64862;54.398;10.126;2023-04-24T03:23:55;9.38;;;7.10;;
16967;SDS011;64862;54.398;10.126;2023-04-24T03:33:57;9.68;;;6.90;;
16967;SDS011;64862;54.398;10.126;2023-04-24T03:44:01;9.95;;;6.93;;
16967;SDS011;64862;54.398;10.126;2023-04-24T03:54:04;9.50;;;6.60;;
16967;SDS011;64862;54.398;10.126;2023-04-24T04:04:11;9.07;;;5.88;;
16967;SDS011;64862;54.398;10.126;2023-04-24T04:14:14;6.75;;;5.05;;
16967;SDS011;64862;54.398;10.126;2023-04-24T04:24:21;7.88;;;5.22;;
16967;SDS011;64862;54.398;10.126;2023-04-24T04:34:25;7.60;;;5.15;;
16967;SDS011;64862;54.398;10.126;2023-04-24T04:44:32;6.22;;;4.75;;
16967;SDS011;64862;54.398;10.126;2023-04-24T04:54:36;5.00;;;3.80;;
16967;SDS011;64862;54.398;10.126;2023-04-24T05:04:41;4.90;;;3.17;;
16967;SDS011;64862;54.398;10.126;2023-04-24T05:14:44;4.53;;;2.90;;
16967;SDS011;64862;54.398;10.126;2023-04-24T05:24:48;6.93;;;2.72;;
16967;SDS011;64862;54.398;10.126;2023-04-24T05:35:15;4.22;;;2.60;;
16967;SDS011;64862;54.398;10.126;2023-04-24T05:45:25;4.05;;;2.35;;
16967;SDS011;64862;54.398;10.126;2023-04-24T05:55:30;4.75;;;2.40;;
16967;SDS011;64862;54.398;10.126;2023-04-24T06:05:37;3.70;;;2.67;;
16967;SDS011;64862;54.398;10.126;2023-04-24T06:15:41;3.90;;;2.60;;
16967;SDS011;64862;54.398;10.126;2023-04-24T06:25:49;3.10;;;2.28;;
16967;SDS011;64862;54.398;10.126;2023-04-24T06:35:52;3.55;;;2.38;;
16967;SDS011;64862;54.398;10.126;2023-04-24T06:45:56;3.67;;;2.47;;
16967;SDS011;64862;54.398;10.126;2023-04-24T06:55:58;3.92;;;2.38;;
16967;SDS011;64862;54.398;10.126;2023-04-24T07:06:02;3.53;;;2.30;;
16967;SDS011;64862;54.398;10.126;2023-04-24T07:16:06;3.60;;;2.67;;
16967;SDS011;64862;54.398;10.126;2023-04-24T07:26:11;3.80;;;2.45;;
16967;SDS011;64862;54.398;10.126;2023-04-24T07:36:15;3.63;;;2.58;;
16967;SDS011;64862;54.398;10.126;2023-04-24T07:46:20;5.72;;;2.00;;
16967;SDS011;64862;54.398;10.126;2023-04-24T07:56:23;3.58;;;2.20;;
16967;SDS011;64862;54.398;10.126;2023-04-24T08:06:26;3.90;;;2.40;;
16967;SDS011;64862;54.398;10.126;2023-04-24T08:16:30;3.92;;;2.50;;
16967;SDS011;64862;54.398;10.126;2023-04-24T08:26:35;5.13;;;2.25;;
16967;SDS011;64862;54.398;10.126;2023-04-24T08:36:37;3.63;;;2.00;;
16967;SDS011;64862;54.398;10.126;2023-04-24T08:46:42;6.00;;;2.50;;
16967;SDS011;64862;54.398;10.126;2023-04-24T08:56:45;4.15;;;2.63;;
16967;SDS011;64862;54.398;10.126;2023-04-24T09:06:51;4.15;;;2.90;;
16967;SDS011;64862;54.398;10.126;2023-04-24T09:27:02;3.85;;;2.88;;
16967;SDS011;64862;54.398;10.126;2023-04-24T09:37:07;4.30;;;3.20;;
16967;SDS011;64862;54.398;10.126;2023-04-24T09:47:11;4.43;;;3.30;;
16967;SDS011;64862;54.398;10.126;2023-04-24T09:57:14;5.43;;;4.47;;
16967;SDS011;64862;54.398;10.126;2023-04-24T10:07:18;7.03;;;4.90;;
16967;SDS011;64862;54.398;10.126;2023-04-24T10:17:20;41.10;;;5.30;;
16967;SDS011;64862;54.398;10.126;2023-04-24T10:27:25;7.38;;;4.53;;
16967;SDS011;64862;54.398;10.126;2023-04-24T10:37:29;6.30;;;3.90;;
16967;SDS011;64862;54.398;10.126;2023-04-24T10:47:42;9.00;;;4.68;;
16967;SDS011;64862;54.398;10.126;2023-04-24T10:58:01;8.55;;;5.15;;
16967;SDS011;64862;54.398;10.126;2023-04-24T11:08:12;7.18;;;4.63;;
16967;SDS011;64862;54.398;10.126;2023-04-24T11:18:16;6.10;;;4.50;;
16967;SDS011;64862;54.398;10.126;2023-04-24T11:28:19;6.82;;;4.53;;
16967;SDS011;64862;54.398;10.126;2023-04-24T11:38:25;6.43;;;4.97;;
16967;SDS011;64862;54.398;10.126;2023-04-24T11:48:30;6.28;;;4.93;;
16967;SDS011;64862;54.398;10.126;2023-04-24T11:58:40;9.20;;;5.35;;
16967;SDS011;64862;54.398;10.126;2023-04-24T12:08:43;10.48;;;6.90;;
16967;SDS011;64862;54.398;10.126;2023-04-24T12:18:47;9.70;;;7.80;;
16967;SDS011;64862;54.398;10.126;2023-04-24T12:28:54;10.85;;;7.53;;
16967;SDS011;64862;54.398;10.126;2023-04-24T12:38:57;9.48;;;6.93;;
16967;SDS011;64862;54.398;10.126;2023-04-24T12:49:01;10.27;;;7.00;;
16967;SDS011;64862;54.398;10.126;2023-04-24T12:59:03;8.13;;;6.10;;
16967;SDS011;64862;54.398;10.126;2023-04-24T13:09:07;9.15;;;5.90;;
16967;SDS011;64862;54.398;10.126;2023-04-24T13:19:09;9.88;;;7.50;;
16967;SDS011;64862;54.398;10.126;2023-04-24T13:29:13;11.00;;;7.63;;
16967;SDS011;64862;54.398;10.126;2023-04-24T13:39:16;15.27;;;10.05;;
16967;SDS011;64862;54.398;10.126;2023-04-24T13:49:20;16.75;;;11.57;;
16967;SDS011;64862;54.398;10.126;2023-04-24T13:59:25;16.88;;;11.57;;
16967;SDS011;64862;54.398;10.126;2023-04-24T14:09:29;17.17;;;11.73;;
16967;SDS011;64862;54.398;10.126;2023-04-24T14:19:31;14.43;;;11.35;;
16967;SDS011;64862;54.398;10.126;2023-04-24T14:29:35;16.50;;;10.32;;
16967;SDS011;64862;54.398;10.126;2023-04-24T14:39:37;11.68;;;8.88;;
16967;SDS011;64862;54.398;10.126;2023-04-24T14:49:42;13.32;;;8.57;;
16967;SDS011;64862;54.398;10.126;2023-04-24T14:59:44;9.05;;;6.75;;
16967;SDS011;64862;54.398;10.126;2023-04-24T15:09:48;7.63;;;5.68;;
16967;SDS011;64862;54.398;10.126;2023-04-24T15:19:50;6.75;;;4.80;;
16967;SDS011;64862;54.398;10.126;2023-04-24T15:29:54;6.63;;;5.13;;
16967;SDS011;64862;54.398;10.126;2023-04-24T15:39:57;4.70;;;3.80;;
16967;SDS011;64862;54.398;10.126;2023-04-24T15:50:02;3.30;;;2.60;;
16967;SDS011;64862;54.398;10.126;2023-04-24T16:00:05;2.65;;;2.05;;
16967;SDS011;64862;54.398;10.126;2023-04-24T16:10:13;3.08;;;2.40;;
16967;SDS011;64862;54.398;10.126;2023-04-24T16:20:15;5.15;;;3.08;;
16967;SDS011;64862;54.398;10.126;2023-04-24T16:30:21;3.03;;;2.03;;
16967;SDS011;64862;54.398;10.126;2023-04-24T16:40:23;4.25;;;2.13;;
16967;SDS011;64862;54.398;10.126;2023-04-24T16:50:26;4.05;;;2.15;;
16967;SDS011;64862;54.398;10.126;2023-04-24T17:00:30;3.97;;;2.70;;
16967;SDS011;64862;54.398;10.126;2023-04-24T17:10:34;14.10;;;6.75;;
16967;SDS011;64862;54.398;10.126;2023-04-24T17:20:36;10.82;;;6.85;;
16967;SDS011;64862;54.398;10.126;2023-04-24T17:30:40;15.50;;;7.25;;
16967;SDS011;64862;54.398;10.126;2023-04-24T17:40:42;13.63;;;6.40;;
16967;SDS011;64862;54.398;10.126;2023-04-24T17:50:46;10.88;;;5.22;;
16967;SDS011;64862;54.398;10.126;2023-04-24T18:00:49;12.55;;;5.13;;
16967;SDS011;64862;54.398;10.126;2023-04-24T18:10:53;9.35;;;4.65;;
16967;SDS011;64862;54.398;10.126;2023-04-24T18:20:55;12.60;;;5.10;;
16967;SDS011;64862;54.398;10.126;2023-04-24T18:31:00;12.55;;;5.05;;
16967;SDS011;64862;54.398;10.126;2023-04-24T18:41:02;9.98;;;4.90;;
16967;SDS011;64862;54.398;10.126;2023-04-24T18:51:06;14.10;;;4.40;;
16967;SDS011;64862;54.398;10.126;2023-04-24T19:01:09;11.25;;;4.68;;
16967;SDS011;64862;54.398;10.126;2023-04-24T19:11:13;14.75;;;5.45;;
16967;SDS011;64862;54.398;10.126;2023-04-24T19:21:18;15.88;;;5.15;;
16967;SDS011;64862;54.398;10.126;2023-04-24T19:31:21;19.10;;;7.07;;
16967;SDS011;64862;54.398;10.126;2023-04-24T19:41:24;17.25;;;5.20;;
16967;SDS011;64862;54.398;10.126;2023-04-24T19:51:28;14.48;;;5.03;;
16967;SDS011;64862;54.398;10.126;2023-04-24T20:01:31;13.77;;;5.40;;
16967;SDS011;64862;54.398;10.126;2023-04-24T20:11:35;12.70;;;4.70;;
16967;SDS011;64862;54.398;10.126;2023-04-24T20:21:37;13.05;;;5.68;;
16967;SDS011;64862;54.398;10.126;2023-04-24T20:31:40;17.13;;;5.53;;
16967;SDS011;64862;54.398;10.126;2023-04-24T20:41:43;12.10;;;5.75;;
16967;SDS011;64862;54.398;10.126;2023-04-24T20:51:47;10.45;;;5.78;;
16967;SDS011;64862;54.398;10.126;2023-04-24T21:01:49;10.63;;;5.82;;
16967;SDS011;64862;54.398;10.126;2023-04-24T21:11:53;8.50;;;5.40;;
16967;SDS011;64862;54.398;10.126;2023-04-24T21:21:55;14.05;;;6.78;;
16967;SDS011;64862;54.398;10.126;2023-04-24T21:31:58;12.40;;;5.22;;
16967;SDS011;64862;54.398;10.126;2023-04-24T21:42:03;12.52;;;5.07;;
16967;SDS011;64862;54.398;10.126;2023-04-24T21:52:07;14.40;;;4.88;;
16967;SDS011;64862;54.398;10.126;2023-04-24T22:02:09;17.17;;;5.15;;
16967;SDS011;64862;54.398;10.126;2023-04-24T22:12:13;16.77;;;4.00;;
16967;SDS011;64862;54.398;10.126;2023-04-24T22:22:19;19.10;;;4.78;;
16967;SDS011;64862;54.398;10.126;2023-04-24T22:32:22;15.77;;;4.38;;
16967;SDS011;64862;54.398;10.126;2023-04-24T22:42:25;25.27;;;5.35;;
16967;SDS011;64862;54.398;10.126;2023-04-24T22:52:28;20.88;;;4.68;;
16967;SDS011;64862;54.398;10.126;2023-04-24T23:02:34;25.17;;;4.20;;
16967;SDS011;64862;54.398;10.126;2023-04-24T23:12:40;18.80;;;3.78;;
16967;SDS011;64862;54.398;10.126;2023-04-24T23:22:44;21.48;;;3.88;;
16967;SDS011;64862;54.398;10.126;2023-04-24T23:32:49;23.50;;;3.28;;
16967;SDS011;64862;54.398;10.126;2023-04-24T23:42:51;14.98;;;3.20;;
16967;SDS011;64862;54.398;10.126;2023-04-24T23:52:55;18.13;;;2.83;;
